createdAt,value
2022-08-23T00:00:12.018Z,70.02
2022-08-23T00:02:07.867Z,69.54
2022-08-23T00:04:08.538Z,69.89
2022-08-23T00:06:09.611Z,70.51
2022-08-23T00:08:11.233Z,72.09
2022-08-23T00:10:13.058Z,71.91
2022-08-23T00:12:14.778Z,71.78
2022-08-23T00:14:16.431Z,72.07
2022-08-23T00:16:18.151Z,72.5
2022-08-23T00:18:19.296Z,72.53
2022-08-23T00:20:20.854Z,72.55
2022-08-23T00:22:22.002Z,72.43
2022-08-23T00:24:23.727Z,72.78
2022-08-23T00:26:25.530Z,72.95
2022-08-23T00:28:26.912Z,72.78
2022-08-23T00:30:28.539Z,72.98
2022-08-23T00:34:30.851Z,73.36
2022-08-23T00:36:31.889Z,74.06
2022-08-23T00:38:34.917Z,74.71
2022-08-23T00:40:34.802Z,75.56
2022-08-23T00:42:35.785Z,75.96
2022-08-23T00:44:37.807Z,76.74
2022-08-23T00:46:39.177Z,76.65
2022-08-23T00:48:40.393Z,76.08
2022-08-23T00:50:41.800Z,75.48
2022-08-23T00:52:43.576Z,75.68
2022-08-23T00:54:45.133Z,76.21
2022-08-23T00:56:46.936Z,76.41
2022-08-23T00:58:47.921Z,76.27
2022-08-23T01:00:49.325Z,76.56
2022-08-23T01:02:50.556Z,77.27
2022-08-23T01:04:52.217Z,78.13
2022-08-23T01:06:53.220Z,78.02
2022-08-23T01:08:54.832Z,77.95
2022-08-23T01:10:56.384Z,78.73
2022-08-23T01:12:58.085Z,79.48
2022-08-23T01:14:59.563Z,79.52
2022-08-23T01:17:00.577Z,78.72
2022-08-23T01:19:01.956Z,78.69
2022-08-23T01:23:05.428Z,78.87
2022-08-23T01:25:08.855Z,78.83
2022-08-23T01:27:07.838Z,78.91
2022-08-23T01:29:09.296Z,79.07
2022-08-23T01:31:11.005Z,79.08
2022-08-23T01:33:12.743Z,79.45
2022-08-23T01:35:14.264Z,79.86
2022-08-23T01:37:16.112Z,80.42
2022-08-23T01:39:17.415Z,80.82
2022-08-23T01:41:18.516Z,80.31
2022-08-23T01:45:22.253Z,80.24
2022-08-23T01:47:23.462Z,80.62
2022-08-23T01:49:24.936Z,80.66
2022-08-23T01:51:26.009Z,81.32
2022-08-23T01:53:27.008Z,81.4
2022-08-23T01:55:28.158Z,81.99
2022-08-23T01:57:29.818Z,82.23
2022-08-23T01:59:31.482Z,82.2
2022-08-23T02:01:32.895Z,82.46
2022-08-23T02:03:33.851Z,82.29
2022-08-23T02:05:35.606Z,82.58
2022-08-23T02:07:37.310Z,82.74
2022-08-23T02:09:39.125Z,83.03
2022-08-23T02:11:40.822Z,83.24
2022-08-23T02:13:42.513Z,83.35
2022-08-23T02:15:43.759Z,83.47
2022-08-23T02:17:44.778Z,83.45
2022-08-23T02:19:45.783Z,83.17
2022-08-23T02:21:46.822Z,83.37
2022-08-23T02:23:47.971Z,83.41
2022-08-23T02:25:49.110Z,83.52
2022-08-23T02:27:50.961Z,83.8
2022-08-23T02:29:52.138Z,83.27
2022-08-23T02:31:53.365Z,83.29
2022-08-23T02:33:54.466Z,83.42
2022-08-23T02:35:56.271Z,83.65
2022-08-23T02:37:57.535Z,83.86
2022-08-23T02:39:58.702Z,84.04
2022-08-23T02:42:00.053Z,84
2022-08-23T02:44:01.559Z,84.16
2022-08-23T02:48:04.810Z,84.29
2022-08-23T02:50:06.679Z,85.14
2022-08-23T02:52:07.645Z,85.33
2022-08-23T02:54:09.225Z,85.22
2022-08-23T02:56:13.032Z,85.13
2022-08-23T02:58:11.495Z,84.88
2022-08-23T03:00:13.275Z,84.73
2022-08-23T03:02:14.546Z,85.18
2022-08-23T03:04:15.967Z,85.1
2022-08-23T03:06:24.252Z,85.26
2022-08-23T03:08:19.380Z,85.45
2022-08-23T03:12:22.282Z,86.17
2022-08-23T03:16:25.572Z,86.41
2022-08-23T03:18:26.512Z,87.03
2022-08-23T03:20:28.445Z,86.98
2022-08-23T03:22:30.311Z,87.15
2022-08-23T03:24:31.351Z,87.31
2022-08-23T03:26:32.642Z,87.53
2022-08-23T03:28:33.788Z,87.28
2022-08-23T03:30:34.816Z,87.6
2022-08-23T03:32:35.877Z,87.5
2022-08-23T03:34:37.031Z,87.46
2022-08-23T03:36:38.047Z,87.48
2022-08-23T03:38:39.895Z,87.57
2022-08-23T03:40:41.408Z,87.9
2022-08-23T03:42:43.255Z,87.98
2022-08-23T03:46:46.254Z,87.42
2022-08-23T03:48:48.124Z,87.45
2022-08-23T03:50:49.783Z,87.61
2022-08-23T03:52:51.171Z,87.96
2022-08-23T03:54:52.682Z,88.13
2022-08-23T03:56:54.418Z,88.41
2022-08-23T03:58:56.275Z,88.6
2022-08-23T04:00:58.183Z,88.54
2022-08-23T04:02:59.910Z,88.63
2022-08-23T04:05:01.177Z,88.5
2022-08-23T04:07:03.045Z,88.65
2022-08-23T04:09:04.862Z,88.74
2022-08-23T04:11:06.489Z,88.85
2022-08-23T04:13:08.019Z,88.67
2022-08-23T04:15:09.660Z,88.69
2022-08-23T04:17:11.413Z,89.2
2022-08-23T04:19:13.236Z,89.15
2022-08-23T04:21:14.513Z,89.26
2022-08-23T04:23:15.642Z,89.48
2022-08-23T04:25:32.937Z,89.47
2022-08-23T04:29:24.943Z,89.27
2022-08-23T04:31:21.817Z,89.16
2022-08-23T04:33:23.373Z,89.17
2022-08-23T04:35:24.350Z,89.17
2022-08-23T04:37:26.064Z,89.44
2022-08-23T04:39:27.290Z,89.28
2022-08-23T04:41:28.318Z,89.37
2022-08-23T04:43:29.751Z,89.43
2022-08-23T04:45:30.776Z,89.37
2022-08-23T04:47:32.266Z,89.36
2022-08-23T04:49:33.992Z,89.57
2022-08-23T04:51:35.548Z,89.83
2022-08-23T04:53:37.024Z,89.95
2022-08-23T04:55:38.121Z,88.52
2022-08-23T04:57:39.117Z,87
2022-08-23T05:01:41.402Z,85.61
2022-08-23T05:03:42.862Z,85.83
2022-08-23T05:05:44.255Z,85.14
2022-08-23T05:07:45.436Z,84.08
2022-08-23T05:09:47.365Z,82.89
2022-08-23T05:11:48.702Z,82.42
2022-08-23T05:13:49.802Z,81.31
2022-08-23T05:15:50.766Z,80.65
2022-08-23T05:17:51.814Z,78.43
2022-08-23T05:19:52.850Z,78.21
2022-08-23T05:21:57.008Z,80.69
2022-08-23T05:23:56.035Z,80.92
2022-08-23T05:27:58.998Z,81.72
2022-08-23T05:30:00.692Z,80.55
2022-08-23T05:32:01.707Z,79.77
2022-08-23T05:34:03.496Z,77.46
2022-08-23T05:36:05.137Z,76.76
2022-08-23T05:38:06.911Z,75.3
2022-08-23T05:40:08.279Z,76.33
2022-08-23T05:42:09.440Z,76.22
2022-08-23T05:44:11.084Z,74.86
2022-08-23T05:46:12.856Z,75.76
2022-08-23T05:48:13.426Z,74.66
2022-08-23T05:52:16.272Z,74.31
2022-08-23T05:54:17.310Z,73.69
2022-08-23T05:56:19.021Z,73.03
2022-08-23T05:58:20.290Z,71.47
2022-08-23T06:00:22.072Z,72.42
2022-08-23T06:02:23.498Z,74.03
2022-08-23T06:04:24.663Z,73.98
2022-08-23T06:06:34.928Z,75.58
2022-08-23T06:10:28.648Z,75.4
2022-08-23T06:12:29.538Z,74.92
2022-08-23T06:14:31.430Z,76.52
2022-08-23T06:16:33.091Z,74.37
2022-08-23T06:18:34.173Z,75.34
2022-08-23T06:20:35.229Z,76.35
2022-08-23T06:22:36.414Z,75.33
2022-08-23T06:24:37.642Z,76.04
2022-08-23T06:26:39.216Z,76.42
2022-08-23T06:28:44.140Z,75.94
2022-08-23T06:30:42.496Z,75.29
2022-08-23T06:32:43.571Z,74.77
2022-08-23T06:34:44.651Z,73.29
2022-08-23T06:36:46.264Z,71.74
2022-08-23T06:38:48.066Z,70.24
2022-08-23T06:42:50.088Z,70.68
2022-08-23T06:43:33.867Z,68.05
2022-08-23T06:45:35.417Z,70.09
2022-08-23T06:47:36.155Z,67.44
2022-08-23T06:49:37.604Z,67.64
2022-08-23T06:51:39.352Z,65.86
2022-08-23T06:53:40.414Z,67.32
2022-08-23T06:55:41.296Z,67.24
2022-08-23T06:57:42.797Z,67.38
2022-08-23T06:59:43.780Z,66.04
2022-08-23T07:01:46.300Z,66.25
2022-08-23T07:03:46.492Z,66.66
2022-08-23T07:05:47.386Z,65.7
2022-08-23T07:07:49.041Z,64.81
2022-08-23T07:09:50.482Z,64.73
2022-08-23T07:11:51.956Z,64.65
2022-08-23T07:13:53.739Z,62.4
2022-08-23T07:15:55.150Z,62.68
2022-08-23T07:17:56.839Z,64.13
2022-08-23T07:19:58.020Z,63.76
2022-08-23T07:21:59.201Z,62.02
2022-08-23T07:24:00.516Z,57.68
2022-08-23T07:26:01.648Z,58.62
2022-08-23T07:28:02.941Z,55.01
2022-08-23T07:30:03.995Z,54.97
2022-08-23T07:32:05.751Z,55.05
2022-08-23T07:34:06.567Z,56.77
2022-08-23T07:36:07.567Z,56.78
2022-08-23T07:38:08.714Z,55.75
2022-08-23T07:40:09.743Z,58.62
2022-08-23T07:42:22.133Z,58.01
2022-08-23T07:46:13.437Z,54.48
2022-08-23T07:48:18.105Z,51.76
2022-08-23T07:50:15.858Z,52.35
2022-08-23T07:52:17.437Z,52.46
2022-08-23T07:54:19.064Z,52.71
2022-08-23T07:56:20.016Z,54.22
2022-08-23T07:58:20.820Z,52.17
2022-08-23T08:00:21.652Z,51.21
2022-08-23T08:02:23.249Z,52.48
2022-08-23T08:04:24.419Z,52.02
2022-08-23T08:06:26.005Z,51.4
2022-08-23T08:08:27.680Z,48.91
2022-08-23T08:10:28.746Z,48.22
2022-08-23T08:12:29.640Z,47.47
2022-08-23T08:14:30.681Z,47.99
2022-08-23T08:16:32.103Z,47.17
2022-08-23T08:18:32.856Z,47.93
2022-08-23T08:20:33.995Z,47.29
2022-08-23T08:22:34.825Z,47.39
2022-08-23T08:24:36.224Z,45.86
2022-08-23T08:26:37.161Z,47.51
2022-08-23T08:28:38.676Z,46.08
2022-08-23T08:30:39.459Z,46.22
2022-08-23T08:32:46.896Z,47.1
2022-08-23T08:34:42.685Z,46.29
2022-08-23T08:36:44.298Z,44.96
2022-08-23T08:38:47.862Z,44.13
2022-08-23T08:40:45.906Z,44.98
2022-08-23T08:42:47.407Z,44.24
2022-08-23T08:44:49.153Z,40.16
2022-08-23T08:46:50.570Z,39.94
2022-08-23T08:48:52.063Z,39.81
2022-08-23T08:50:52.931Z,39.88
2022-08-23T08:52:54.416Z,40.16
2022-08-23T08:54:55.708Z,40.12
2022-08-23T08:58:57.471Z,38.68
2022-08-23T09:00:59.152Z,38.39
2022-08-23T09:03:00.825Z,39.73
2022-08-23T09:05:01.971Z,38.79
2022-08-23T09:07:02.985Z,38.5
2022-08-23T09:09:04.308Z,37.9
2022-08-23T09:11:06.461Z,38.26
2022-08-23T09:13:07.500Z,38.99
2022-08-23T09:15:08.624Z,39.38
2022-08-23T09:17:10.240Z,39.31
2022-08-23T09:19:11.187Z,38.4
2022-08-23T09:21:12.503Z,37.92
2022-08-23T09:23:13.841Z,37.14
2022-08-23T09:27:16.108Z,38.19
2022-08-23T09:29:17.353Z,37.63
2022-08-23T09:31:18.251Z,37.42
2022-08-23T09:33:19.138Z,38.3
2022-08-23T09:35:20.728Z,36.76
2022-08-23T09:37:21.970Z,37.24
2022-08-23T09:39:23.441Z,37.05
2022-08-23T09:41:24.717Z,37.06
2022-08-23T09:43:26.262Z,36.84
2022-08-23T09:45:28.186Z,35.67
2022-08-23T09:47:29.073Z,36.13
2022-08-23T09:49:30.350Z,36.31
2022-08-23T09:51:31.104Z,35.25
2022-08-23T09:53:32.202Z,36.73
2022-08-23T09:55:33.609Z,36.28
2022-08-23T09:59:35.962Z,37.48
2022-08-23T10:01:39.053Z,35.47
2022-08-23T10:03:37.839Z,34.27
2022-08-23T10:05:39.136Z,35.37
2022-08-23T10:09:42.225Z,34.22
2022-08-23T10:11:43.782Z,33.92
2022-08-23T10:13:45.315Z,35.16
2022-08-23T10:15:46.127Z,34.59
2022-08-23T10:17:47.983Z,34.39
2022-08-23T10:19:48.961Z,33.32
2022-08-23T10:21:50.302Z,34.65
2022-08-23T10:23:51.829Z,34.71
2022-08-23T10:25:52.717Z,33.83
2022-08-23T10:27:53.670Z,34.54
2022-08-23T10:29:55.018Z,36.4
2022-08-23T10:31:58.935Z,34.28
2022-08-23T10:33:57.293Z,34.4
2022-08-23T10:35:58.549Z,34.51
2022-08-23T10:37:59.782Z,34.3
2022-08-23T10:40:03.878Z,35.28
2022-08-23T10:42:02.454Z,33.84
2022-08-23T10:44:03.682Z,34.27
2022-08-23T10:46:04.827Z,33.15
2022-08-23T10:48:05.764Z,33.22
2022-08-23T10:50:06.944Z,33.46
2022-08-23T10:52:08.087Z,32.81
2022-08-23T10:54:08.973Z,33.97
2022-08-23T10:56:09.878Z,31.68
2022-08-23T10:58:10.810Z,32.76
2022-08-23T11:00:11.863Z,33.74
2022-08-23T11:02:13.247Z,32.37
2022-08-23T11:08:17.829Z,32.44
2022-08-23T11:10:18.827Z,32.78
2022-08-23T11:12:20.191Z,31.09
2022-08-23T11:14:21.730Z,31.55
2022-08-23T11:16:23.377Z,31.64
2022-08-23T11:18:24.197Z,32.23
2022-08-23T11:20:25.450Z,32.48
2022-08-23T11:22:26.296Z,31.61
2022-08-23T11:24:27.630Z,30.84
2022-08-23T11:26:28.957Z,31.7
2022-08-23T11:28:30.529Z,30.69
2022-08-23T11:30:31.384Z,31.47
2022-08-23T11:32:32.642Z,32.06
2022-08-23T11:34:34.232Z,32.17
2022-08-23T11:36:35.294Z,32.5
2022-08-23T11:40:38.293Z,32.67
2022-08-23T11:42:39.102Z,32.62
2022-08-23T11:44:40.420Z,33.1
2022-08-23T11:46:42.144Z,32.07
2022-08-23T11:50:44.075Z,32.05
2022-08-23T11:52:45.680Z,30.87
2022-08-23T11:54:47.018Z,30.3
2022-08-23T11:56:48.266Z,30.38
2022-08-23T11:58:49.095Z,29.64
2022-08-23T12:00:49.916Z,31.83
2022-08-23T12:02:50.829Z,30.07
2022-08-23T12:06:53.037Z,30.38
2022-08-23T12:08:54.112Z,29.62
2022-08-23T12:10:55.585Z,30.03
2022-08-23T12:12:56.414Z,29.45
2022-08-23T12:14:57.900Z,29.98
2022-08-23T12:16:59.364Z,31.64
2022-08-23T12:19:00.842Z,30.57
2022-08-23T12:21:02.478Z,30.68
2022-08-23T12:23:03.946Z,30.37
2022-08-23T12:25:05.217Z,31.42
2022-08-23T12:27:06.452Z,30.29
2022-08-23T12:29:07.648Z,30.86
2022-08-23T12:31:13.359Z,31
2022-08-23T12:33:10.006Z,30.89
2022-08-23T12:35:11.693Z,30
2022-08-23T12:37:13.094Z,30.33
2022-08-23T12:39:13.926Z,29.33
2022-08-23T12:41:15.291Z,28.38
2022-08-23T12:43:17.488Z,28.33
2022-08-23T12:45:18.371Z,27.88
2022-08-23T12:49:20.475Z,28.34
2022-08-23T12:51:21.225Z,29.73
2022-08-23T12:53:22.740Z,30.43
2022-08-23T12:55:23.936Z,31.23
2022-08-23T12:57:37.027Z,30.18
2022-08-23T12:59:26.160Z,30
2022-08-23T13:01:29.945Z,29.12
2022-08-23T13:03:28.625Z,29.28
2022-08-23T13:05:30.271Z,29.94
2022-08-23T13:07:31.897Z,30.59
2022-08-23T13:09:33.116Z,31.31
2022-08-23T13:11:34.031Z,30.37
2022-08-23T13:13:35.358Z,30.45
2022-08-23T13:15:36.835Z,28.95
2022-08-23T13:17:38.384Z,29.35
2022-08-23T13:19:39.401Z,28.37
2022-08-23T13:21:41.096Z,28.77
2022-08-23T13:23:41.664Z,29.94
2022-08-23T13:25:43.075Z,29.46
2022-08-23T13:27:44.168Z,29.03
2022-08-23T13:30:29.111Z,28.48
2022-08-23T13:32:30.822Z,29.09
2022-08-23T13:34:31.965Z,28.43
2022-08-23T13:36:32.787Z,29.5
2022-08-23T13:38:34.248Z,30.92
2022-08-23T13:42:36.043Z,28.91
2022-08-23T13:44:37.572Z,28.72
2022-08-23T13:46:39.002Z,28.01
2022-08-23T13:48:40.038Z,28.45
2022-08-23T13:50:41.467Z,28.69
2022-08-23T13:53:02.989Z,29.42
2022-08-23T13:54:44.000Z,28.31
2022-08-23T13:56:45.959Z,27.94
2022-08-23T13:58:46.692Z,28.76
2022-08-23T14:00:55.143Z,28.94
2022-08-23T14:02:49.608Z,28.48
2022-08-23T14:04:50.461Z,29.07
2022-08-23T14:06:51.822Z,28.45
2022-08-23T14:08:53.416Z,28.07
2022-08-23T14:10:54.832Z,27.57
2022-08-23T14:12:56.071Z,29.76
2022-08-23T14:14:56.987Z,28.84
2022-08-23T14:21:01.971Z,27.55
2022-08-23T14:25:04.393Z,27.1
2022-08-23T14:27:05.408Z,28.12
2022-08-23T14:29:06.772Z,28.27
2022-08-23T14:31:07.685Z,27.71
2022-08-23T14:33:09.119Z,27.78
2022-08-23T14:35:11.068Z,27.62
2022-08-23T14:39:16.570Z,27.85
2022-08-23T14:41:13.857Z,28.19
2022-08-23T14:43:14.749Z,28.48
2022-08-23T14:45:15.462Z,29.51
2022-08-23T14:47:16.651Z,29.4
2022-08-23T14:49:18.153Z,28.77
2022-08-23T14:51:19.366Z,28.38
2022-08-23T14:53:20.085Z,29.73
2022-08-23T14:55:24.429Z,28.77
2022-08-23T14:57:21.932Z,29.11
2022-08-23T14:59:23.335Z,29.49
2022-08-23T15:01:24.902Z,28.35
2022-08-23T15:03:25.741Z,28.56
2022-08-23T15:05:26.446Z,28.22
2022-08-23T15:07:27.785Z,28.96
2022-08-23T15:09:28.521Z,29.19
2022-08-23T15:13:34.723Z,28.78
2022-08-23T15:15:32.198Z,29.46
2022-08-23T15:17:33.323Z,29.26
2022-08-23T15:19:34.586Z,29.06
2022-08-23T15:23:37.940Z,28.87
2022-08-23T15:25:39.142Z,28.75
2022-08-23T15:27:40.417Z,29.2
2022-08-23T15:29:41.743Z,28.34
2022-08-23T15:31:43.275Z,28.6
2022-08-23T15:33:44.694Z,28.93
2022-08-23T15:35:46.321Z,28.79
2022-08-23T15:37:47.482Z,29.12
2022-08-23T15:39:48.734Z,29.28
2022-08-23T15:41:50.014Z,29.68
2022-08-23T15:43:51.460Z,28.67
2022-08-23T15:45:52.335Z,28.8
2022-08-23T15:47:53.332Z,29.34
2022-08-23T15:49:54.048Z,29.66
2022-08-23T15:51:55.617Z,29.51
2022-08-23T15:56:00.084Z,28.78
2022-08-23T15:57:59.033Z,28.81
2022-08-23T15:59:59.984Z,28.58
2022-08-23T16:02:01.459Z,29.17
2022-08-23T16:06:04.051Z,30.4
2022-08-23T16:08:05.133Z,29.26
2022-08-23T16:10:06.081Z,29.9
2022-08-23T16:12:07.135Z,29.72
2022-08-23T16:14:07.992Z,29.57
2022-08-23T16:16:08.989Z,29.61
2022-08-23T16:18:09.845Z,29.4
2022-08-23T16:22:13.179Z,29.59
2022-08-23T16:24:14.196Z,29.55
2022-08-23T16:26:15.836Z,28.58
2022-08-23T16:28:16.578Z,29.5
2022-08-23T16:30:18.249Z,29.75
2022-08-23T16:32:19.485Z,30.32
2022-08-23T16:34:21.049Z,30.4
2022-08-23T16:36:24.532Z,30.46
2022-08-23T16:38:23.630Z,30.37
2022-08-23T16:40:25.319Z,30.66
2022-08-23T16:42:26.342Z,30.38
2022-08-23T16:44:27.984Z,30.48
2022-08-23T16:46:29.573Z,30.34
2022-08-23T16:48:30.374Z,30.48
2022-08-23T16:50:31.615Z,29.93
2022-08-23T16:52:34.488Z,29.66
2022-08-23T16:54:34.736Z,29.92
2022-08-23T16:56:35.738Z,29.54
2022-08-23T16:58:36.832Z,29.97
2022-08-23T17:00:37.984Z,30.48
2022-08-23T17:04:40.536Z,30.47
2022-08-23T17:06:41.953Z,30.38
2022-08-23T17:08:42.962Z,30.5
2022-08-23T17:10:44.591Z,30.57
2022-08-23T17:12:46.989Z,31
2022-08-23T17:14:46.996Z,30.16
2022-08-23T17:16:47.958Z,30.54
2022-08-23T17:18:49.419Z,31.23
2022-08-23T17:20:50.752Z,31.99
2022-08-23T17:22:51.677Z,32.41
2022-08-23T17:24:53.477Z,32.68
2022-08-23T17:26:54.282Z,32.7
2022-08-23T17:28:55.696Z,33.35
2022-08-23T17:30:56.826Z,33.29
2022-08-23T17:32:58.428Z,33.78
2022-08-23T17:37:01.539Z,33.29
2022-08-23T17:39:02.752Z,33.69
2022-08-23T17:41:04.029Z,33.97
2022-08-23T17:43:05.246Z,34.14
2022-08-23T17:47:08.232Z,34.22
2022-08-23T17:49:09.073Z,34.75
2022-08-23T17:51:10.234Z,34.54
2022-08-23T17:53:11.951Z,35.3
2022-08-23T17:57:15.479Z,36.12
2022-08-23T17:59:16.574Z,35.88
2022-08-23T18:03:19.339Z,35.93
2022-08-23T18:05:20.181Z,36.48
2022-08-23T18:07:21.258Z,36.82
2022-08-23T18:09:22.200Z,36.93
2022-08-23T18:11:23.882Z,37.5
2022-08-23T18:13:25.421Z,37.8
2022-08-23T18:15:26.300Z,38.02
2022-08-23T18:17:28.041Z,37.87
2022-08-23T18:19:28.997Z,38.11
2022-08-23T18:21:30.986Z,38.66
2022-08-23T18:23:31.733Z,38.48
2022-08-23T18:25:33.390Z,38.86
2022-08-23T18:27:34.826Z,38.88
2022-08-23T18:29:35.807Z,39
2022-08-23T18:31:37.257Z,39.53
2022-08-23T18:33:46.605Z,39.09
2022-08-23T18:35:39.305Z,39.28
2022-08-23T18:37:40.209Z,40.06
2022-08-23T18:39:41.346Z,40.19
2022-08-23T18:41:42.316Z,40.17
2022-08-23T18:45:44.747Z,40.83
2022-08-23T18:47:46.186Z,40.98
2022-08-23T18:49:47.707Z,40.79
2022-08-23T18:51:48.569Z,40.51
2022-08-23T18:53:49.934Z,40.08
2022-08-23T18:55:50.880Z,40.09
2022-08-23T18:57:52.202Z,40.54
2022-08-23T18:59:53.334Z,41.18
2022-08-23T19:01:55.177Z,41.64
2022-08-23T19:03:55.962Z,42.07
2022-08-23T19:05:57.311Z,42.4
2022-08-23T19:07:58.486Z,43.27
2022-08-23T19:10:00.113Z,43.12
2022-08-23T19:12:01.023Z,43.98
2022-08-23T19:14:02.819Z,45.16
2022-08-23T19:18:04.713Z,45.63
2022-08-23T19:20:05.560Z,45.84
2022-08-23T19:22:06.783Z,45.51
2022-08-23T19:24:07.855Z,46.02
2022-08-23T19:26:09.874Z,44.85
2022-08-23T19:28:10.015Z,43.76
2022-08-23T19:30:11.881Z,44.35
2022-08-23T19:34:14.620Z,45.53
2022-08-23T19:36:29.536Z,45.62
2022-08-23T19:38:16.991Z,46.22
2022-08-23T19:40:18.569Z,46.72
2022-08-23T19:44:21.802Z,47.23
2022-08-23T19:46:22.889Z,47.19
2022-08-23T19:48:23.955Z,47.61
2022-08-23T19:50:25.836Z,47.81
2022-08-23T19:52:26.756Z,47.52
2022-08-23T19:54:28.509Z,47.68
2022-08-23T19:56:30.186Z,49.34
2022-08-23T19:58:31.255Z,49.18
2022-08-23T20:00:32.981Z,48.2
2022-08-23T20:02:34.578Z,48.48
2022-08-23T20:04:35.502Z,48.75
2022-08-23T20:06:36.362Z,48.76
2022-08-23T20:08:37.787Z,49.83
2022-08-23T20:10:38.917Z,50.22
2022-08-23T20:12:39.577Z,50.84
2022-08-23T20:13:23.344Z,50.67
2022-08-23T20:15:24.602Z,51.11
2022-08-23T20:21:29.090Z,52.05
2022-08-23T20:23:29.998Z,52.45
2022-08-23T20:25:31.399Z,52.95
2022-08-23T20:27:32.900Z,53.01
2022-08-23T20:29:34.002Z,53.28
2022-08-23T20:31:35.615Z,53.47
2022-08-23T20:33:36.920Z,53.04
2022-08-23T20:35:38.199Z,52.19
2022-08-23T20:37:39.376Z,52.54
2022-08-23T20:39:40.725Z,52.35
2022-08-23T20:41:42.333Z,52.71
2022-08-23T20:43:44.117Z,52.16
2022-08-23T20:45:45.088Z,52.03
2022-08-23T20:47:46.559Z,52.58
2022-08-23T20:49:47.843Z,52.66
2022-08-23T20:51:49.267Z,54.21
2022-08-23T20:53:50.522Z,53.81
2022-08-23T20:55:52.041Z,53.5
2022-08-23T20:57:53.066Z,53.26
2022-08-23T20:59:54.072Z,52.93
2022-08-23T21:01:55.086Z,54.42
2022-08-23T21:03:56.808Z,53.48
2022-08-23T21:05:57.973Z,53.65
2022-08-23T21:07:59.667Z,54.08
2022-08-23T21:10:00.814Z,55.3
2022-08-23T21:12:02.277Z,55.49
2022-08-23T21:14:03.524Z,55.46
2022-08-23T21:16:05.044Z,55.32
2022-08-23T21:20:07.855Z,55.94
2022-08-23T21:22:08.267Z,56.01
2022-08-23T21:24:09.497Z,55.32
2022-08-23T21:26:10.556Z,55.8
2022-08-23T21:28:11.722Z,56.74
2022-08-23T21:30:12.982Z,56.04
2022-08-23T21:32:13.941Z,56.66
2022-08-23T21:34:15.337Z,57.28
2022-08-23T21:36:16.731Z,58.29
2022-08-23T21:38:18.460Z,58.32
2022-08-23T21:40:19.988Z,56.09
2022-08-23T21:42:23.681Z,58.08
2022-08-23T21:44:22.789Z,58.43
2022-08-23T21:46:24.422Z,58.13
2022-08-23T21:48:25.968Z,58.1
2022-08-23T21:52:28.957Z,60.42
2022-08-23T21:54:30.828Z,59.94
2022-08-23T21:56:31.737Z,59.6
2022-08-23T21:58:32.857Z,59.02
2022-08-23T22:02:35.202Z,58.76
2022-08-23T22:04:36.938Z,59.54
2022-08-23T22:06:38.249Z,59.73
2022-08-23T22:08:39.781Z,61.06
2022-08-23T22:10:40.613Z,60.85
2022-08-23T22:12:42.365Z,59.91
2022-08-23T22:14:43.335Z,58.74
2022-08-23T22:16:44.955Z,58.28
2022-08-23T22:18:46.778Z,58.08
2022-08-23T22:22:49.371Z,58.51
2022-08-23T22:24:50.267Z,58.73
2022-08-23T22:26:51.654Z,58.15
2022-08-23T22:28:53.486Z,58.44
2022-08-23T22:30:55.050Z,58.57
2022-08-23T22:32:56.182Z,58.96
2022-08-23T22:34:57.279Z,59.14
2022-08-23T22:36:58.926Z,59.19
2022-08-23T22:39:00.532Z,59.09
2022-08-23T22:43:03.755Z,59.32
2022-08-23T22:45:04.904Z,59.84
2022-08-23T22:47:06.459Z,59.04
2022-08-23T22:51:09.354Z,61.1
2022-08-23T22:53:10.618Z,61.54
2022-08-23T22:55:12.067Z,62.28
2022-08-23T22:57:13.077Z,63.72
2022-08-23T22:59:14.583Z,63.79
2022-08-23T23:01:16.165Z,64.19
2022-08-23T23:03:17.744Z,64.1
2022-08-23T23:05:19.531Z,63.75
2022-08-23T23:07:20.410Z,61.63
2022-08-23T23:09:21.700Z,61.27
2022-08-23T23:11:23.533Z,60.99
2022-08-23T23:15:25.735Z,61.03
2022-08-23T23:33:38.560Z,64.43
2022-08-23T23:35:39.679Z,63.45
2022-08-23T23:37:41.431Z,63.73
2022-08-23T23:39:42.826Z,65.02
2022-08-23T23:41:44.179Z,64.79
2022-08-23T23:43:45.315Z,65.26
2022-08-23T23:45:46.881Z,66.53
2022-08-23T23:47:48.142Z,67.5
2022-08-23T23:49:49.420Z,67.82
2022-08-23T23:51:50.794Z,68.31
2022-08-23T23:53:52.497Z,68.64
2022-08-23T23:55:54.042Z,68.82
2022-08-23T23:57:55.752Z,69.48
2022-08-23T23:59:56.853Z,69.2
